sensor_id;sensor_type;location;lat;lon;timestamp;P1;durP1;ratioP1;P2;durP2;ratioP2
67344;SDS011;54230;52.402;6.276;2023-02-15T00:00:00;37.0;;;17.8;;
67344;SDS011;54230;52.402;6.276;2023-02-15T00:05:00;36.8;;;17.3;;
67344;SDS011;54230;52.402;6.276;2023-02-15T00:10:00;37.0;;;18.2;;
67344;SDS011;54230;52.402;6.276;2023-02-15T00:15:00;30.2;;;15.5;;
67344;SDS011;54230;52.402;6.276;2023-02-15T00:20:00;25.3;;;12.7;;
67344;SDS011;54230;52.402;6.276;2023-02-15T00:25:00;26.8;;;13.8;;
67344;SDS011;54230;52.402;6.276;2023-02-15T00:30:00;29.8;;;14.7;;
67344;SDS011;54230;52.402;6.276;2023-02-15T00:35:00;30.6;;;14.9;;
67344;SDS011;54230;52.402;6.276;2023-02-15T00:40:00;34.6;;;16.4;;
67344;SDS011;54230;52.402;6.276;2023-02-15T00:45:00;34.5;;;16.5;;
67344;SDS011;54230;52.402;6.276;2023-02-15T00:50:00;32.5;;;16.4;;
67344;SDS011;54230;52.402;6.276;2023-02-15T00:55:00;31.8;;;15.4;;
67344;SDS011;54230;52.402;6.276;2023-02-15T01:00:00;30.8;;;15.7;;
67344;SDS011;54230;52.402;6.276;2023-02-15T01:05:00;32.3;;;15.6;;
67344;SDS011;54230;52.402;6.276;2023-02-15T01:10:00;31.5;;;15.6;;
67344;SDS011;54230;52.402;6.276;2023-02-15T01:15:00;30.2;;;14.3;;
67344;SDS011;54230;52.402;6.276;2023-02-15T01:20:00;31.5;;;15.4;;
67344;SDS011;54230;52.402;6.276;2023-02-15T01:25:00;30.9;;;15.2;;
67344;SDS011;54230;52.402;6.276;2023-02-15T01:30:00;28.9;;;14.6;;
67344;SDS011;54230;52.402;6.276;2023-02-15T01:35:00;30.9;;;14.8;;
67344;SDS011;54230;52.402;6.276;2023-02-15T01:40:00;30.4;;;15.2;;
67344;SDS011;54230;52.402;6.276;2023-02-15T01:45:01;32.7;;;16.5;;
67344;SDS011;54230;52.402;6.276;2023-02-15T01:50:02;32.1;;;16.0;;
67344;SDS011;54230;52.402;6.276;2023-02-15T01:55:00;32.1;;;15.2;;
67344;SDS011;54230;52.402;6.276;2023-02-15T02:00:01;31.2;;;15.7;;
67344;SDS011;54230;52.402;6.276;2023-02-15T02:05:01;32.1;;;15.4;;
67344;SDS011;54230;52.402;6.276;2023-02-15T02:10:00;30.7;;;15.0;;
67344;SDS011;54230;52.402;6.276;2023-02-15T02:15:00;29.9;;;14.8;;
67344;SDS011;54230;52.402;6.276;2023-02-15T02:25:05;32.0;;;15.4;;
67344;SDS011;54230;52.402;6.276;2023-02-15T02:35:01;29.7;;;15.2;;
67344;SDS011;54230;52.402;6.276;2023-02-15T02:40:02;31.9;;;15.4;;
67344;SDS011;54230;52.402;6.276;2023-02-15T02:45:02;34.3;;;17.2;;
67344;SDS011;54230;52.402;6.276;2023-02-15T02:50:01;29.3;;;15.1;;
67344;SDS011;54230;52.402;6.276;2023-02-15T02:55:00;33.7;;;19.1;;
67344;SDS011;54230;52.402;6.276;2023-02-15T03:00:00;34.2;;;19.6;;
67344;SDS011;54230;52.402;6.276;2023-02-15T03:05:01;34.7;;;19.9;;
67344;SDS011;54230;52.402;6.276;2023-02-15T03:10:00;35.8;;;20.8;;
67344;SDS011;54230;52.402;6.276;2023-02-15T03:15:01;37.3;;;23.4;;
67344;SDS011;54230;52.402;6.276;2023-02-15T03:20:01;37.7;;;23.3;;
67344;SDS011;54230;52.402;6.276;2023-02-15T03:25:02;37.0;;;24.3;;
67344;SDS011;54230;52.402;6.276;2023-02-15T03:30:00;41.0;;;23.8;;
67344;SDS011;54230;52.402;6.276;2023-02-15T03:35:00;39.4;;;25.6;;
67344;SDS011;54230;52.402;6.276;2023-02-15T03:40:00;43.8;;;28.0;;
67344;SDS011;54230;52.402;6.276;2023-02-15T03:45:02;45.2;;;27.0;;
67344;SDS011;54230;52.402;6.276;2023-02-15T03:50:01;42.7;;;28.5;;
67344;SDS011;54230;52.402;6.276;2023-02-15T03:55:00;43.7;;;29.4;;
67344;SDS011;54230;52.402;6.276;2023-02-15T04:00:01;43.4;;;27.9;;
67344;SDS011;54230;52.402;6.276;2023-02-15T04:05:00;44.0;;;28.3;;
67344;SDS011;54230;52.402;6.276;2023-02-15T04:10:00;46.9;;;30.4;;
67344;SDS011;54230;52.402;6.276;2023-02-15T04:15:00;45.2;;;30.3;;
67344;SDS011;54230;52.402;6.276;2023-02-15T04:20:00;43.5;;;28.1;;
67344;SDS011;54230;52.402;6.276;2023-02-15T04:25:00;46.4;;;28.7;;
67344;SDS011;54230;52.402;6.276;2023-02-15T04:30:00;42.5;;;27.7;;
67344;SDS011;54230;52.402;6.276;2023-02-15T04:35:00;50.4;;;30.0;;
67344;SDS011;54230;52.402;6.276;2023-02-15T04:40:00;47.3;;;30.5;;
67344;SDS011;54230;52.402;6.276;2023-02-15T04:45:00;52.7;;;32.9;;
67344;SDS011;54230;52.402;6.276;2023-02-15T04:50:00;45.5;;;29.4;;
67344;SDS011;54230;52.402;6.276;2023-02-15T04:55:00;44.9;;;28.3;;
67344;SDS011;54230;52.402;6.276;2023-02-15T05:00:00;48.2;;;30.6;;
67344;SDS011;54230;52.402;6.276;2023-02-15T05:05:00;48.6;;;31.2;;
67344;SDS011;54230;52.402;6.276;2023-02-15T05:10:00;47.5;;;30.6;;
67344;SDS011;54230;52.402;6.276;2023-02-15T05:15:00;46.8;;;31.0;;
67344;SDS011;54230;52.402;6.276;2023-02-15T05:20:00;46.4;;;31.7;;
67344;SDS011;54230;52.402;6.276;2023-02-15T05:25:00;48.0;;;31.4;;
67344;SDS011;54230;52.402;6.276;2023-02-15T05:30:00;48.0;;;33.1;;
67344;SDS011;54230;52.402;6.276;2023-02-15T05:35:00;50.5;;;33.7;;
67344;SDS011;54230;52.402;6.276;2023-02-15T05:40:00;46.9;;;31.4;;
67344;SDS011;54230;52.402;6.276;2023-02-15T05:45:00;48.9;;;32.6;;
67344;SDS011;54230;52.402;6.276;2023-02-15T05:50:00;48.1;;;33.0;;
67344;SDS011;54230;52.402;6.276;2023-02-15T05:55:00;49.7;;;34.6;;
67344;SDS011;54230;52.402;6.276;2023-02-15T06:00:00;57.5;;;36.2;;
67344;SDS011;54230;52.402;6.276;2023-02-15T06:05:00;61.1;;;35.6;;
67344;SDS011;54230;52.402;6.276;2023-02-15T06:10:00;55.0;;;36.2;;
67344;SDS011;54230;52.402;6.276;2023-02-15T06:15:00;53.1;;;35.2;;
67344;SDS011;54230;52.402;6.276;2023-02-15T06:20:00;51.9;;;33.7;;
67344;SDS011;54230;52.402;6.276;2023-02-15T06:25:00;50.9;;;33.4;;
67344;SDS011;54230;52.402;6.276;2023-02-15T06:30:00;50.6;;;33.0;;
67344;SDS011;54230;52.402;6.276;2023-02-15T06:35:00;51.2;;;32.2;;
67344;SDS011;54230;52.402;6.276;2023-02-15T06:40:00;49.7;;;33.0;;
67344;SDS011;54230;52.402;6.276;2023-02-15T06:45:00;52.5;;;34.0;;
67344;SDS011;54230;52.402;6.276;2023-02-15T06:50:00;59.8;;;37.0;;
67344;SDS011;54230;52.402;6.276;2023-02-15T06:55:00;58.1;;;35.1;;
67344;SDS011;54230;52.402;6.276;2023-02-15T07:00:00;63.4;;;35.9;;
67344;SDS011;54230;52.402;6.276;2023-02-15T07:05:00;64.7;;;36.2;;
67344;SDS011;54230;52.402;6.276;2023-02-15T07:10:00;60.9;;;35.8;;
67344;SDS011;54230;52.402;6.276;2023-02-15T07:15:00;60.3;;;34.7;;
67344;SDS011;54230;52.402;6.276;2023-02-15T07:20:00;60.1;;;33.6;;
67344;SDS011;54230;52.402;6.276;2023-02-15T07:25:00;62.0;;;31.1;;
67344;SDS011;54230;52.402;6.276;2023-02-15T07:30:00;59.0;;;30.4;;
67344;SDS011;54230;52.402;6.276;2023-02-15T07:35:00;55.6;;;29.4;;
67344;SDS011;54230;52.402;6.276;2023-02-15T07:40:00;55.9;;;28.7;;
67344;SDS011;54230;52.402;6.276;2023-02-15T07:45:00;57.4;;;26.7;;
67344;SDS011;54230;52.402;6.276;2023-02-15T07:50:00;53.3;;;24.5;;
67344;SDS011;54230;52.402;6.276;2023-02-15T07:55:00;54.2;;;23.6;;
67344;SDS011;54230;52.402;6.276;2023-02-15T08:00:00;51.6;;;22.6;;
67344;SDS011;54230;52.402;6.276;2023-02-15T08:05:00;52.6;;;23.2;;
67344;SDS011;54230;52.402;6.276;2023-02-15T08:10:00;52.9;;;22.1;;
67344;SDS011;54230;52.402;6.276;2023-02-15T08:15:00;49.6;;;21.8;;
67344;SDS011;54230;52.402;6.276;2023-02-15T08:20:00;54.5;;;22.6;;
67344;SDS011;54230;52.402;6.276;2023-02-15T08:25:00;51.8;;;22.1;;
67344;SDS011;54230;52.402;6.276;2023-02-15T08:30:00;50.0;;;22.9;;
67344;SDS011;54230;52.402;6.276;2023-02-15T08:35:00;53.1;;;22.3;;
67344;SDS011;54230;52.402;6.276;2023-02-15T08:40:00;51.6;;;22.5;;
67344;SDS011;54230;52.402;6.276;2023-02-15T08:45:00;52.0;;;23.8;;
67344;SDS011;54230;52.402;6.276;2023-02-15T08:50:00;52.5;;;23.4;;
67344;SDS011;54230;52.402;6.276;2023-02-15T08:55:00;53.3;;;23.2;;
67344;SDS011;54230;52.402;6.276;2023-02-15T09:00:00;49.4;;;22.3;;
67344;SDS011;54230;52.402;6.276;2023-02-15T09:05:00;48.7;;;22.2;;
67344;SDS011;54230;52.402;6.276;2023-02-15T09:10:00;50.6;;;22.3;;
67344;SDS011;54230;52.402;6.276;2023-02-15T09:15:00;51.5;;;23.3;;
67344;SDS011;54230;52.402;6.276;2023-02-15T09:20:00;51.4;;;23.3;;
67344;SDS011;54230;52.402;6.276;2023-02-15T09:25:00;50.1;;;23.3;;
67344;SDS011;54230;52.402;6.276;2023-02-15T09:30:00;50.7;;;23.4;;
67344;SDS011;54230;52.402;6.276;2023-02-15T09:35:00;51.7;;;23.4;;
67344;SDS011;54230;52.402;6.276;2023-02-15T09:40:00;50.0;;;24.0;;
67344;SDS011;54230;52.402;6.276;2023-02-15T09:45:03;47.8;;;23.4;;
67344;SDS011;54230;52.402;6.276;2023-02-15T09:50:02;51.0;;;23.3;;
67344;SDS011;54230;52.402;6.276;2023-02-15T09:55:05;48.9;;;23.3;;
67344;SDS011;54230;52.402;6.276;2023-02-15T10:00:02;47.9;;;23.5;;
67344;SDS011;54230;52.402;6.276;2023-02-15T10:05:04;48.0;;;23.4;;
67344;SDS011;54230;52.402;6.276;2023-02-15T10:10:06;47.9;;;22.8;;
67344;SDS011;54230;52.402;6.276;2023-02-15T10:15:05;49.5;;;23.1;;
67344;SDS011;54230;52.402;6.276;2023-02-15T10:20:04;44.7;;;22.2;;
67344;SDS011;54230;52.402;6.276;2023-02-15T10:25:04;45.8;;;22.9;;
67344;SDS011;54230;52.402;6.276;2023-02-15T10:30:02;46.7;;;22.8;;
67344;SDS011;54230;52.402;6.276;2023-02-15T10:35:01;44.6;;;22.6;;
67344;SDS011;54230;52.402;6.276;2023-02-15T10:40:03;43.9;;;21.5;;
67344;SDS011;54230;52.402;6.276;2023-02-15T10:45:06;41.2;;;20.7;;
67344;SDS011;54230;52.402;6.276;2023-02-15T10:50:05;44.5;;;21.7;;
67344;SDS011;54230;52.402;6.276;2023-02-15T10:55:02;44.2;;;21.5;;
67344;SDS011;54230;52.402;6.276;2023-02-15T11:00:03;45.3;;;21.2;;
67344;SDS011;54230;52.402;6.276;2023-02-15T11:05:02;44.0;;;21.4;;
67344;SDS011;54230;52.402;6.276;2023-02-15T11:10:01;41.9;;;21.5;;
67344;SDS011;54230;52.402;6.276;2023-02-15T11:15:01;41.9;;;20.6;;
67344;SDS011;54230;52.402;6.276;2023-02-15T11:20:02;40.6;;;20.5;;
67344;SDS011;54230;52.402;6.276;2023-02-15T11:25:01;43.2;;;20.0;;
67344;SDS011;54230;52.402;6.276;2023-02-15T11:30:01;40.1;;;20.3;;
67344;SDS011;54230;52.402;6.276;2023-02-15T11:35:01;40.3;;;20.3;;
67344;SDS011;54230;52.402;6.276;2023-02-15T11:40:00;39.5;;;20.6;;
67344;SDS011;54230;52.402;6.276;2023-02-15T11:45:02;38.6;;;19.4;;
67344;SDS011;54230;52.402;6.276;2023-02-15T11:50:00;39.2;;;20.9;;
67344;SDS011;54230;52.402;6.276;2023-02-15T11:55:00;40.4;;;19.9;;
67344;SDS011;54230;52.402;6.276;2023-02-15T12:00:01;39.5;;;19.0;;
67344;SDS011;54230;52.402;6.276;2023-02-15T12:05:01;39.0;;;19.1;;
67344;SDS011;54230;52.402;6.276;2023-02-15T12:10:02;38.5;;;19.6;;
67344;SDS011;54230;52.402;6.276;2023-02-15T12:15:01;35.6;;;18.4;;
67344;SDS011;54230;52.402;6.276;2023-02-15T12:20:01;38.5;;;18.0;;
67344;SDS011;54230;52.402;6.276;2023-02-15T12:25:00;39.7;;;18.5;;
67344;SDS011;54230;52.402;6.276;2023-02-15T12:30:01;35.8;;;17.8;;
67344;SDS011;54230;52.402;6.276;2023-02-15T12:35:01;35.6;;;17.4;;
67344;SDS011;54230;52.402;6.276;2023-02-15T12:40:01;34.2;;;17.1;;
67344;SDS011;54230;52.402;6.276;2023-02-15T12:45:01;34.7;;;17.9;;
67344;SDS011;54230;52.402;6.276;2023-02-15T12:50:06;35.6;;;17.8;;
67344;SDS011;54230;52.402;6.276;2023-02-15T12:55:09;35.0;;;17.6;;
67344;SDS011;54230;52.402;6.276;2023-02-15T13:00:02;34.5;;;17.7;;
67344;SDS011;54230;52.402;6.276;2023-02-15T13:05:04;33.7;;;17.9;;
67344;SDS011;54230;52.402;6.276;2023-02-15T13:10:00;34.7;;;17.2;;
67344;SDS011;54230;52.402;6.276;2023-02-15T13:15:00;36.9;;;18.0;;
67344;SDS011;54230;52.402;6.276;2023-02-15T13:20:02;33.6;;;17.7;;
67344;SDS011;54230;52.402;6.276;2023-02-15T13:25:01;34.7;;;18.0;;
67344;SDS011;54230;52.402;6.276;2023-02-15T13:30:02;35.3;;;17.8;;
67344;SDS011;54230;52.402;6.276;2023-02-15T13:35:00;36.1;;;17.6;;
67344;SDS011;54230;52.402;6.276;2023-02-15T13:40:01;34.1;;;17.5;;
67344;SDS011;54230;52.402;6.276;2023-02-15T13:45:05;34.3;;;17.7;;
67344;SDS011;54230;52.402;6.276;2023-02-15T13:50:04;37.5;;;17.1;;
67344;SDS011;54230;52.402;6.276;2023-02-15T13:55:06;34.1;;;17.4;;
67344;SDS011;54230;52.402;6.276;2023-02-15T14:00:02;36.5;;;17.0;;
67344;SDS011;54230;52.402;6.276;2023-02-15T14:05:05;37.1;;;18.3;;
67344;SDS011;54230;52.402;6.276;2023-02-15T14:10:03;38.4;;;17.9;;
67344;SDS011;54230;52.402;6.276;2023-02-15T14:15:04;34.5;;;17.6;;
67344;SDS011;54230;52.402;6.276;2023-02-15T14:20:01;34.7;;;17.8;;
67344;SDS011;54230;52.402;6.276;2023-02-15T14:25:05;36.0;;;17.1;;
67344;SDS011;54230;52.402;6.276;2023-02-15T14:30:02;38.8;;;18.2;;
67344;SDS011;54230;52.402;6.276;2023-02-15T14:35:01;35.6;;;18.2;;
67344;SDS011;54230;52.402;6.276;2023-02-15T14:40:01;38.3;;;18.8;;
67344;SDS011;54230;52.402;6.276;2023-02-15T14:45:01;35.1;;;17.6;;
67344;SDS011;54230;52.402;6.276;2023-02-15T14:55:00;38.0;;;18.5;;
67344;SDS011;54230;52.402;6.276;2023-02-15T15:00:02;39.5;;;18.6;;
67344;SDS011;54230;52.402;6.276;2023-02-15T15:05:01;36.4;;;18.3;;
67344;SDS011;54230;52.402;6.276;2023-02-15T15:10:02;37.4;;;19.0;;
67344;SDS011;54230;52.402;6.276;2023-02-15T15:15:00;36.3;;;18.0;;
67344;SDS011;54230;52.402;6.276;2023-02-15T15:20:02;35.4;;;18.5;;
67344;SDS011;54230;52.402;6.276;2023-02-15T15:25:01;35.6;;;18.2;;
67344;SDS011;54230;52.402;6.276;2023-02-15T15:30:00;38.0;;;18.6;;
67344;SDS011;54230;52.402;6.276;2023-02-15T15:35:05;37.7;;;18.6;;
67344;SDS011;54230;52.402;6.276;2023-02-15T15:50:00;39.0;;;19.6;;
67344;SDS011;54230;52.402;6.276;2023-02-15T15:55:02;38.0;;;19.3;;
67344;SDS011;54230;52.402;6.276;2023-02-15T16:00:00;39.4;;;19.4;;
67344;SDS011;54230;52.402;6.276;2023-02-15T16:05:06;39.1;;;19.1;;
67344;SDS011;54230;52.402;6.276;2023-02-15T16:10:01;40.9;;;19.5;;
67344;SDS011;54230;52.402;6.276;2023-02-15T16:15:00;37.0;;;19.7;;
67344;SDS011;54230;52.402;6.276;2023-02-15T16:20:01;39.7;;;19.9;;
67344;SDS011;54230;52.402;6.276;2023-02-15T16:25:04;39.8;;;20.5;;
67344;SDS011;54230;52.402;6.276;2023-02-15T16:35:01;43.5;;;21.1;;
67344;SDS011;54230;52.402;6.276;2023-02-15T16:40:00;42.0;;;20.3;;
67344;SDS011;54230;52.402;6.276;2023-02-15T16:45:02;41.1;;;20.8;;
67344;SDS011;54230;52.402;6.276;2023-02-15T16:50:01;42.4;;;21.4;;
67344;SDS011;54230;52.402;6.276;2023-02-15T16:55:02;42.3;;;21.4;;
67344;SDS011;54230;52.402;6.276;2023-02-15T17:00:02;41.6;;;21.1;;
67344;SDS011;54230;52.402;6.276;2023-02-15T17:05:05;43.0;;;22.2;;
67344;SDS011;54230;52.402;6.276;2023-02-15T17:10:00;44.9;;;22.1;;
67344;SDS011;54230;52.402;6.276;2023-02-15T17:15:00;45.9;;;23.0;;
67344;SDS011;54230;52.402;6.276;2023-02-15T17:20:00;44.4;;;22.4;;
67344;SDS011;54230;52.402;6.276;2023-02-15T17:25:01;47.5;;;23.5;;
67344;SDS011;54230;52.402;6.276;2023-02-15T17:30:01;46.3;;;23.0;;
67344;SDS011;54230;52.402;6.276;2023-02-15T17:35:07;50.5;;;24.3;;
67344;SDS011;54230;52.402;6.276;2023-02-15T17:40:01;48.4;;;23.6;;
67344;SDS011;54230;52.402;6.276;2023-02-15T17:45:00;50.4;;;24.6;;
67344;SDS011;54230;52.402;6.276;2023-02-15T17:50:01;51.1;;;24.9;;
67344;SDS011;54230;52.402;6.276;2023-02-15T17:55:01;50.9;;;24.9;;
67344;SDS011;54230;52.402;6.276;2023-02-15T18:00:00;50.1;;;25.1;;
67344;SDS011;54230;52.402;6.276;2023-02-15T18:05:00;49.5;;;24.9;;
67344;SDS011;54230;52.402;6.276;2023-02-15T18:10:00;52.8;;;25.2;;
67344;SDS011;54230;52.402;6.276;2023-02-15T18:15:00;50.9;;;25.2;;
67344;SDS011;54230;52.402;6.276;2023-02-15T18:20:00;51.9;;;25.3;;
67344;SDS011;54230;52.402;6.276;2023-02-15T18:25:00;51.5;;;25.1;;
67344;SDS011;54230;52.402;6.276;2023-02-15T18:30:00;51.5;;;25.1;;
67344;SDS011;54230;52.402;6.276;2023-02-15T18:35:00;52.5;;;26.2;;
67344;SDS011;54230;52.402;6.276;2023-02-15T18:40:00;49.1;;;25.4;;
67344;SDS011;54230;52.402;6.276;2023-02-15T18:45:01;53.4;;;26.4;;
67344;SDS011;54230;52.402;6.276;2023-02-15T18:50:00;55.5;;;27.1;;
67344;SDS011;54230;52.402;6.276;2023-02-15T18:55:01;52.3;;;27.3;;
67344;SDS011;54230;52.402;6.276;2023-02-15T19:00:00;62.7;;;27.3;;
67344;SDS011;54230;52.402;6.276;2023-02-15T19:05:00;56.7;;;27.4;;
67344;SDS011;54230;52.402;6.276;2023-02-15T19:10:00;56.3;;;27.4;;
67344;SDS011;54230;52.402;6.276;2023-02-15T19:15:00;58.0;;;27.8;;
67344;SDS011;54230;52.402;6.276;2023-02-15T19:20:00;56.3;;;27.4;;
67344;SDS011;54230;52.402;6.276;2023-02-15T19:25:01;58.2;;;27.9;;
67344;SDS011;54230;52.402;6.276;2023-02-15T19:30:01;58.9;;;27.7;;
67344;SDS011;54230;52.402;6.276;2023-02-15T19:35:00;60.3;;;27.9;;
67344;SDS011;54230;52.402;6.276;2023-02-15T19:40:00;60.9;;;29.0;;
67344;SDS011;54230;52.402;6.276;2023-02-15T19:45:00;56.8;;;27.2;;
67344;SDS011;54230;52.402;6.276;2023-02-15T19:50:00;61.4;;;28.3;;
67344;SDS011;54230;52.402;6.276;2023-02-15T19:55:00;56.3;;;27.7;;
67344;SDS011;54230;52.402;6.276;2023-02-15T20:00:00;57.2;;;27.6;;
67344;SDS011;54230;52.402;6.276;2023-02-15T20:05:00;53.9;;;26.6;;
67344;SDS011;54230;52.402;6.276;2023-02-15T20:10:00;57.9;;;26.9;;
67344;SDS011;54230;52.402;6.276;2023-02-15T20:15:00;57.1;;;26.6;;
67344;SDS011;54230;52.402;6.276;2023-02-15T20:20:00;56.3;;;27.6;;
67344;SDS011;54230;52.402;6.276;2023-02-15T20:25:00;53.4;;;27.0;;
67344;SDS011;54230;52.402;6.276;2023-02-15T20:30:00;56.1;;;26.7;;
67344;SDS011;54230;52.402;6.276;2023-02-15T20:35:00;53.7;;;26.5;;
67344;SDS011;54230;52.402;6.276;2023-02-15T20:40:00;54.2;;;26.5;;
67344;SDS011;54230;52.402;6.276;2023-02-15T20:45:00;58.1;;;27.6;;
67344;SDS011;54230;52.402;6.276;2023-02-15T20:50:00;54.7;;;26.9;;
67344;SDS011;54230;52.402;6.276;2023-02-15T20:55:00;56.6;;;27.0;;
67344;SDS011;54230;52.402;6.276;2023-02-15T21:00:00;55.7;;;27.4;;
67344;SDS011;54230;52.402;6.276;2023-02-15T21:05:00;56.8;;;27.8;;
67344;SDS011;54230;52.402;6.276;2023-02-15T21:10:00;56.3;;;27.8;;
67344;SDS011;54230;52.402;6.276;2023-02-15T21:15:00;56.2;;;27.0;;
67344;SDS011;54230;52.402;6.276;2023-02-15T21:20:00;54.6;;;26.7;;
67344;SDS011;54230;52.402;6.276;2023-02-15T21:25:00;59.5;;;27.2;;
67344;SDS011;54230;52.402;6.276;2023-02-15T21:30:00;57.1;;;25.8;;
67344;SDS011;54230;52.402;6.276;2023-02-15T21:35:00;54.9;;;26.1;;
67344;SDS011;54230;52.402;6.276;2023-02-15T21:40:00;55.0;;;26.8;;
67344;SDS011;54230;52.402;6.276;2023-02-15T21:45:00;54.9;;;26.2;;
67344;SDS011;54230;52.402;6.276;2023-02-15T21:50:00;55.1;;;26.1;;
67344;SDS011;54230;52.402;6.276;2023-02-15T21:55:00;57.4;;;25.1;;
67344;SDS011;54230;52.402;6.276;2023-02-15T22:00:01;53.5;;;26.0;;
67344;SDS011;54230;52.402;6.276;2023-02-15T22:05:00;54.3;;;25.9;;
67344;SDS011;54230;52.402;6.276;2023-02-15T22:10:00;53.1;;;26.0;;
67344;SDS011;54230;52.402;6.276;2023-02-15T22:15:00;55.1;;;26.4;;
67344;SDS011;54230;52.402;6.276;2023-02-15T22:20:00;57.0;;;26.4;;
67344;SDS011;54230;52.402;6.276;2023-02-15T22:25:00;54.4;;;26.0;;
67344;SDS011;54230;52.402;6.276;2023-02-15T22:30:00;56.3;;;26.3;;
67344;SDS011;54230;52.402;6.276;2023-02-15T22:35:00;57.0;;;26.4;;
67344;SDS011;54230;52.402;6.276;2023-02-15T22:40:00;57.0;;;26.0;;
67344;SDS011;54230;52.402;6.276;2023-02-15T22:45:00;55.7;;;26.4;;
67344;SDS011;54230;52.402;6.276;2023-02-15T22:50:00;58.9;;;26.9;;
67344;SDS011;54230;52.402;6.276;2023-02-15T22:55:00;54.9;;;26.4;;
67344;SDS011;54230;52.402;6.276;2023-02-15T23:00:00;54.4;;;25.6;;
67344;SDS011;54230;52.402;6.276;2023-02-15T23:05:00;53.9;;;25.3;;
67344;SDS011;54230;52.402;6.276;2023-02-15T23:10:00;53.7;;;25.2;;
67344;SDS011;54230;52.402;6.276;2023-02-15T23:15:00;54.7;;;24.8;;
67344;SDS011;54230;52.402;6.276;2023-02-15T23:20:00;54.5;;;25.7;;
67344;SDS011;54230;52.402;6.276;2023-02-15T23:25:00;53.5;;;25.0;;
67344;SDS011;54230;52.402;6.276;2023-02-15T23:30:01;51.3;;;25.3;;
67344;SDS011;54230;52.402;6.276;2023-02-15T23:35:00;55.2;;;26.4;;
67344;SDS011;54230;52.402;6.276;2023-02-15T23:40:00;54.0;;;26.3;;
67344;SDS011;54230;52.402;6.276;2023-02-15T23:45:00;53.2;;;25.6;;
67344;SDS011;54230;52.402;6.276;2023-02-15T23:50:00;54.1;;;25.0;;
67344;SDS011;54230;52.402;6.276;2023-02-15T23:55:00;57.8;;;25.6;;
